createdAt,value
2019-04-30T00:01:33.497Z,12.40
2019-04-30T00:04:13.296Z,11.50
2019-04-30T00:06:42.598Z,12.47
2019-04-30T00:09:17.095Z,12.03
2019-04-30T00:11:46.059Z,12.20
2019-04-30T00:14:16.757Z,12.45
2019-04-30T00:16:46.057Z,11.43
2019-04-30T00:19:19.441Z,12.47
2019-04-30T00:21:50.252Z,13.25
2019-04-30T00:24:17.522Z,13.68
2019-04-30T00:26:52.017Z,14.70
2019-04-30T00:29:26.410Z,14.10
2019-04-30T00:31:49.112Z,12.75
2019-04-30T00:34:18.465Z,13.30
2019-04-30T00:36:47.847Z,14.50
2019-04-30T00:39:27.222Z,13.83
2019-04-30T00:41:56.835Z,12.90
2019-04-30T00:44:28.271Z,13.83
2019-04-30T00:47:00.705Z,13.50
2019-04-30T00:49:28.444Z,14.75
2019-04-30T00:51:58.326Z,14.07
2019-04-30T00:54:30.660Z,13.38
2019-04-30T00:57:04.417Z,15.40
2019-04-30T00:59:30.048Z,16.05
2019-04-30T01:02:05.962Z,15.65
2019-04-30T01:04:37.721Z,15.93
2019-04-30T01:07:08.796Z,15.32
2019-04-30T01:09:39.656Z,15.83
2019-04-30T01:12:09.451Z,15.40
2019-04-30T01:14:40.416Z,16.27
2019-04-30T01:17:12.326Z,15.72
2019-04-30T01:19:41.300Z,19.35
2019-04-30T01:22:10.675Z,15.63
2019-04-30T01:24:40.060Z,17.37
2019-04-30T01:27:10.608Z,17.67
2019-04-30T01:29:44.091Z,17.25
2019-04-30T01:32:17.602Z,16.95
2019-04-30T01:34:44.211Z,19.17
2019-04-30T01:37:14.622Z,18.32
2019-04-30T01:39:44.917Z,19.07
2019-04-30T01:42:14.312Z,19.15
2019-04-30T01:44:50.475Z,18.17
2019-04-30T01:47:14.656Z,18.87
2019-04-30T01:49:45.129Z,20.30
2019-04-30T01:52:14.455Z,20.25
2019-04-30T01:54:43.774Z,21.93
2019-04-30T01:57:19.241Z,19.87
2019-04-30T02:00:02.274Z,22.20
2019-04-30T02:02:34.628Z,22.60
2019-04-30T02:05:08.905Z,23.70
2019-04-30T02:07:40.153Z,24.98
2019-04-30T02:10:09.855Z,23.02
2019-04-30T02:12:39.324Z,24.85
2019-04-30T02:15:09.533Z,26.77
2019-04-30T02:17:39.018Z,26.77
2019-04-30T02:20:10.366Z,25.52
2019-04-30T02:22:39.682Z,28.85
2019-04-30T02:25:09.936Z,28.47
2019-04-30T02:27:39.280Z,29.55
2019-04-30T02:30:11.074Z,28.38
2019-04-30T02:32:40.397Z,29.67
2019-04-30T02:35:14.124Z,28.92
2019-04-30T02:38:01.436Z,27.73
2019-04-30T02:40:33.934Z,27.10
2019-04-30T02:43:03.848Z,29.02
2019-04-30T02:45:35.425Z,25.93
2019-04-30T02:48:05.372Z,27.50
2019-04-30T02:50:35.530Z,27.95
2019-04-30T02:53:09.722Z,28.02
2019-04-30T02:55:45.400Z,26.62
2019-04-30T02:58:14.708Z,30.12
2019-04-30T03:00:44.038Z,30.82
2019-04-30T03:03:13.340Z,30.72
2019-04-30T03:05:42.674Z,29.20
2019-04-30T03:08:11.989Z,29.82
2019-04-30T03:10:41.318Z,28.60
2019-04-30T03:13:10.647Z,29.52
2019-04-30T03:15:39.972Z,29.25
2019-04-30T03:18:23.087Z,30.80
2019-04-30T03:20:52.661Z,28.45
2019-04-30T03:23:22.074Z,31.73
2019-04-30T03:25:51.378Z,30.35
2019-04-30T03:28:20.780Z,35.00
2019-04-30T03:30:56.167Z,34.92
2019-04-30T03:33:23.076Z,41.25
2019-04-30T03:35:54.143Z,34.88
2019-04-30T03:38:23.791Z,33.98
2019-04-30T03:40:53.288Z,34.70
2019-04-30T03:43:22.611Z,32.58
2019-04-30T03:45:51.923Z,37.08
2019-04-30T03:48:21.250Z,40.45
2019-04-30T03:50:56.682Z,34.45
2019-04-30T03:53:21.589Z,33.25
2019-04-30T03:55:50.946Z,33.30
2019-04-30T03:58:21.484Z,32.45
2019-04-30T04:00:53.728Z,36.45
2019-04-30T04:03:24.100Z,35.98
2019-04-30T04:06:00.750Z,37.48
2019-04-30T04:08:39.131Z,40.55
2019-04-30T04:11:10.329Z,34.18
2019-04-30T04:13:40.025Z,45.15
2019-04-30T04:16:10.511Z,50.60
2019-04-30T04:18:40.336Z,42.08
2019-04-30T04:21:16.504Z,36.95
2019-04-30T04:23:40.844Z,34.45
2019-04-30T04:26:10.172Z,36.65
2019-04-30T04:28:43.241Z,36.28
2019-04-30T04:31:10.573Z,42.95
2019-04-30T04:33:39.875Z,39.88
2019-04-30T04:36:09.547Z,36.53
2019-04-30T04:38:40.348Z,47.38
2019-04-30T04:41:10.397Z,37.70
2019-04-30T04:43:40.266Z,45.92
2019-04-30T04:46:09.793Z,36.50
2019-04-30T04:48:39.563Z,38.42
2019-04-30T04:51:19.814Z,46.20
2019-04-30T04:53:40.281Z,36.42
2019-04-30T04:56:10.210Z,43.58
2019-04-30T04:58:40.222Z,29.23
2019-04-30T05:01:11.853Z,31.95
2019-04-30T05:03:40.844Z,35.63
2019-04-30T05:06:11.832Z,34.92
2019-04-30T05:08:41.381Z,37.45
2019-04-30T05:11:10.784Z,31.90
2019-04-30T05:13:40.145Z,33.40
2019-04-30T05:16:09.508Z,38.70
2019-04-30T05:18:39.172Z,24.90
2019-04-30T05:21:08.959Z,25.70
2019-04-30T05:23:41.118Z,29.80
2019-04-30T05:26:11.077Z,24.20
2019-04-30T05:28:40.609Z,21.60
2019-04-30T05:31:09.912Z,26.33
2019-04-30T05:33:39.241Z,24.92
2019-04-30T05:36:09.345Z,31.48
2019-04-30T05:38:39.812Z,26.55
2019-04-30T05:41:09.409Z,27.35
2019-04-30T05:43:38.839Z,25.97
2019-04-30T05:46:10.794Z,28.70
2019-04-30T05:48:39.766Z,27.75
2019-04-30T05:51:10.332Z,22.85
2019-04-30T05:53:39.648Z,23.70
2019-04-30T05:56:09.527Z,20.30
2019-04-30T05:58:39.813Z,22.37
2019-04-30T06:01:09.790Z,21.37
2019-04-30T06:03:40.522Z,21.02
2019-04-30T06:06:11.455Z,19.50
2019-04-30T06:08:45.329Z,20.05
2019-04-30T06:11:19.313Z,19.85
2019-04-30T06:13:53.316Z,17.52
2019-04-30T06:16:24.436Z,19.52
2019-04-30T06:18:53.913Z,19.27
2019-04-30T06:21:23.292Z,18.23
2019-04-30T06:23:52.753Z,18.40
2019-04-30T06:26:22.300Z,17.42
2019-04-30T06:28:51.715Z,18.48
2019-04-30T06:31:31.902Z,18.23
2019-04-30T06:33:52.472Z,17.02
2019-04-30T06:36:21.852Z,18.55
2019-04-30T06:38:51.200Z,17.87
2019-04-30T06:41:20.512Z,18.65
2019-04-30T06:43:50.372Z,19.52
2019-04-30T06:46:19.746Z,21.07
2019-04-30T06:48:51.103Z,21.10
2019-04-30T06:51:21.253Z,23.95
2019-04-30T06:53:51.366Z,24.30
2019-04-30T06:56:20.787Z,25.62
2019-04-30T06:58:52.603Z,26.30
2019-04-30T07:01:23.727Z,28.95
2019-04-30T07:03:53.209Z,33.25
2019-04-30T07:06:29.605Z,28.70
2019-04-30T07:08:59.654Z,34.78
2019-04-30T07:11:49.334Z,36.93
2019-04-30T07:14:19.537Z,42.83
2019-04-30T07:16:49.491Z,48.73
2019-04-30T07:19:29.950Z,52.23
2019-04-30T07:21:49.939Z,46.90
2019-04-30T07:24:20.972Z,51.18
2019-04-30T07:26:54.682Z,54.98
2019-04-30T07:29:21.488Z,52.78
2019-04-30T07:31:51.668Z,50.05
2019-04-30T07:34:21.320Z,61.02
2019-04-30T07:37:10.424Z,49.03
2019-04-30T07:39:23.568Z,52.08
2019-04-30T07:41:52.748Z,57.78
2019-04-30T07:46:53.079Z,53.63
2019-04-30T07:49:22.408Z,55.33
2019-04-30T07:51:52.877Z,49.38
2019-04-30T07:54:22.736Z,57.75
2019-04-30T07:56:52.068Z,54.63
2019-04-30T07:59:21.490Z,65.52
2019-04-30T08:02:04.058Z,57.27
2019-04-30T08:04:29.287Z,54.95
2019-04-30T08:07:00.258Z,50.40
2019-04-30T08:09:36.969Z,52.38
2019-04-30T08:09:39.228Z,49.77
2019-04-30T08:12:01.091Z,53.00
2019-04-30T08:14:30.603Z,57.90
2019-04-30T08:16:59.984Z,42.30
2019-04-30T08:19:30.389Z,50.70
2019-04-30T08:22:00.816Z,44.58
2019-04-30T08:24:30.213Z,51.77
2019-04-30T08:27:01.315Z,48.08
2019-04-30T08:29:30.716Z,46.77
2019-04-30T08:32:00.045Z,52.13
2019-04-30T08:34:29.385Z,51.63
2019-04-30T08:36:59.423Z,48.42
2019-04-30T08:39:31.624Z,50.67
2019-04-30T08:42:00.070Z,44.50
2019-04-30T08:44:29.716Z,52.17
2019-04-30T08:47:00.100Z,52.50
2019-04-30T08:49:30.410Z,53.28
2019-04-30T08:52:00.260Z,56.77
2019-04-30T08:54:29.616Z,49.27
2019-04-30T08:56:59.536Z,51.48
2019-04-30T08:59:29.560Z,54.15
2019-04-30T09:02:12.277Z,48.78
2019-04-30T09:04:32.237Z,49.05
2019-04-30T09:07:01.537Z,49.95
2019-04-30T09:09:30.937Z,49.63
2019-04-30T09:12:00.239Z,45.70
2019-04-30T09:14:29.963Z,51.37
2019-04-30T09:16:59.693Z,47.13
2019-04-30T09:19:29.746Z,52.73
2019-04-30T09:21:59.390Z,56.42
2019-04-30T09:24:30.688Z,47.15
2019-04-30T09:26:59.717Z,49.83
2019-04-30T09:29:29.391Z,41.85
2019-04-30T09:31:59.383Z,49.97
2019-04-30T09:34:29.246Z,56.30
2019-04-30T09:36:59.334Z,47.70
2019-04-30T09:39:29.529Z,42.47
2019-04-30T09:41:59.680Z,40.48
2019-04-30T09:44:30.885Z,43.68
2019-04-30T09:47:00.353Z,33.60
2019-04-30T09:49:29.698Z,43.50
2019-04-30T09:51:59.695Z,36.58
2019-04-30T09:54:29.907Z,33.40
2019-04-30T09:57:00.432Z,29.65
2019-04-30T09:59:29.767Z,30.15
2019-04-30T10:01:59.108Z,31.62
2019-04-30T10:04:30.290Z,30.55
2019-04-30T10:06:59.625Z,27.80
2019-04-30T10:09:29.487Z,29.48
2019-04-30T10:12:12.558Z,26.07
2019-04-30T10:14:41.937Z,27.30
2019-04-30T10:17:29.772Z,28.23
2019-04-30T10:19:59.176Z,28.52
2019-04-30T10:22:28.487Z,28.20
2019-04-30T10:24:59.669Z,29.57
2019-04-30T10:27:29.491Z,29.15
2019-04-30T10:29:59.586Z,29.35
2019-04-30T10:32:29.981Z,29.40
2019-04-30T10:37:28.718Z,31.35
2019-04-30T10:39:59.744Z,30.60
2019-04-30T10:42:29.289Z,37.25
2019-04-30T10:45:00.287Z,35.70
2019-04-30T10:47:32.491Z,35.03
2019-04-30T10:50:00.781Z,39.55
2019-04-30T10:52:30.106Z,38.85
2019-04-30T10:54:59.642Z,37.15
2019-04-30T10:57:29.086Z,35.50
2019-04-30T10:59:58.769Z,38.10
2019-04-30T11:02:28.773Z,35.37
2019-04-30T11:04:59.237Z,40.30
2019-04-30T11:07:28.905Z,36.83
2019-04-30T11:09:58.876Z,33.93
2019-04-30T11:12:29.237Z,38.55
2019-04-30T11:14:58.828Z,36.60
2019-04-30T11:17:30.075Z,36.80
2019-04-30T11:19:59.501Z,37.98
2019-04-30T11:22:29.179Z,39.43
2019-04-30T11:25:02.602Z,46.45
2019-04-30T11:27:32.190Z,41.92
2019-04-30T11:30:04.045Z,36.63
2019-04-30T11:32:33.267Z,35.20
2019-04-30T11:35:03.065Z,41.70
2019-04-30T11:37:32.411Z,35.33
2019-04-30T11:40:01.792Z,37.35
2019-04-30T11:42:32.375Z,35.55
2019-04-30T11:45:01.880Z,32.23
2019-04-30T11:47:32.925Z,35.15
2019-04-30T11:50:02.609Z,32.70
2019-04-30T11:52:32.187Z,34.10
2019-04-30T11:55:01.632Z,30.85
2019-04-30T11:57:31.208Z,32.53
2019-04-30T12:00:00.540Z,31.95
2019-04-30T12:02:33.161Z,32.03
2019-04-30T12:05:05.184Z,39.40
2019-04-30T12:07:38.272Z,33.67
2019-04-30T12:10:13.165Z,33.65
2019-04-30T12:12:43.613Z,31.12
2019-04-30T12:15:12.952Z,33.55
2019-04-30T12:17:42.276Z,31.05
2019-04-30T12:20:12.176Z,28.62
2019-04-30T12:22:41.480Z,30.50
2019-04-30T12:25:11.156Z,30.23
2019-04-30T12:27:40.545Z,29.67
2019-04-30T12:30:10.713Z,27.80
2019-04-30T12:32:40.049Z,25.40
2019-04-30T12:35:11.272Z,23.87
2019-04-30T12:37:41.680Z,24.30
2019-04-30T12:40:25.819Z,25.27
2019-04-30T12:42:42.327Z,26.07
2019-04-30T12:45:12.009Z,25.20
2019-04-30T12:47:45.679Z,26.85
2019-04-30T12:50:51.618Z,25.85
2019-04-30T12:53:28.951Z,27.73
2019-04-30T12:56:02.865Z,28.25
2019-04-30T12:58:32.274Z,27.58
2019-04-30T13:01:01.725Z,28.73
2019-04-30T13:03:31.077Z,29.35
2019-04-30T13:06:01.609Z,28.15
2019-04-30T13:08:31.933Z,30.82
2019-04-30T13:11:02.284Z,31.12
2019-04-30T13:13:32.673Z,31.52
2019-04-30T13:18:30.980Z,30.97
2019-04-30T13:23:09.733Z,29.20
2019-04-30T13:25:48.973Z,27.27
2019-04-30T13:28:11.883Z,29.12
2019-04-30T13:30:42.271Z,29.12
2019-04-30T13:35:49.583Z,27.48
2019-04-30T13:38:20.559Z,27.20
2019-04-30T13:40:53.960Z,28.62
2019-04-30T13:43:39.935Z,29.37
2019-04-30T13:46:08.615Z,28.77
2019-04-30T13:48:38.024Z,27.85
2019-04-30T13:51:07.332Z,27.35
2019-04-30T13:53:36.660Z,27.00
2019-04-30T13:56:06.047Z,28.00
2019-04-30T13:58:35.380Z,26.65
2019-04-30T14:03:39.818Z,28.42
2019-04-30T14:06:10.806Z,29.18
2019-04-30T14:08:53.611Z,29.25
2019-04-30T14:11:22.990Z,29.15
2019-04-30T14:13:52.393Z,29.45
2019-04-30T14:16:22.257Z,29.30
2019-04-30T14:18:51.661Z,28.77
2019-04-30T14:21:32.331Z,27.52
2019-04-30T14:23:52.071Z,28.32
2019-04-30T14:26:21.475Z,25.32
2019-04-30T14:28:50.796Z,25.35
2019-04-30T14:31:20.858Z,29.77
2019-04-30T14:33:51.377Z,25.92
2019-04-30T14:36:20.756Z,25.40
2019-04-30T14:41:20.237Z,24.95
2019-04-30T14:43:55.017Z,25.23
2019-04-30T14:46:26.681Z,27.37
2019-04-30T14:49:15.520Z,24.45
2019-04-30T14:51:45.655Z,23.42
2019-04-30T14:54:22.738Z,23.35
2019-04-30T14:56:53.772Z,21.17
2019-04-30T14:59:33.990Z,20.80
2019-04-30T15:02:08.897Z,22.52
2019-04-30T15:04:39.314Z,20.25
2019-04-30T15:07:09.711Z,21.07
2019-04-30T15:09:39.391Z,22.32
2019-04-30T15:12:09.720Z,19.73
2019-04-30T15:14:40.903Z,19.95
2019-04-30T15:17:10.381Z,20.48
2019-04-30T15:19:39.799Z,19.10
2019-04-30T15:22:09.187Z,18.40
2019-04-30T15:24:40.555Z,17.70
2019-04-30T15:27:09.899Z,19.98
2019-04-30T15:29:39.373Z,20.45
2019-04-30T15:32:08.809Z,18.20
2019-04-30T15:34:40.888Z,18.13
2019-04-30T15:37:19.248Z,19.40
2019-04-30T15:39:41.042Z,19.57
2019-04-30T15:42:10.750Z,17.32
2019-04-30T15:44:42.812Z,17.77
2019-04-30T15:47:11.604Z,16.35
2019-04-30T15:49:41.023Z,17.85
2019-04-30T15:52:10.983Z,20.32
2019-04-30T15:54:40.523Z,18.10
2019-04-30T15:57:09.864Z,15.78
2019-04-30T15:59:41.093Z,15.35
2019-04-30T16:02:18.808Z,14.63
2019-04-30T16:04:52.925Z,17.52
2019-04-30T16:07:22.311Z,15.70
2019-04-30T16:09:59.248Z,17.35
2019-04-30T16:12:39.268Z,16.50
2019-04-30T16:15:10.054Z,16.90
2019-04-30T16:17:41.073Z,18.20
2019-04-30T16:20:10.545Z,17.82
2019-04-30T16:22:40.007Z,17.53
2019-04-30T16:25:09.579Z,15.98
2019-04-30T16:27:39.067Z,15.60
2019-04-30T16:30:09.559Z,18.37
2019-04-30T16:32:40.244Z,16.25
2019-04-30T16:35:09.904Z,16.77
2019-04-30T16:37:39.275Z,16.15
2019-04-30T16:40:10.416Z,16.67
2019-04-30T16:42:39.839Z,16.37
2019-04-30T16:45:09.634Z,14.93
2019-04-30T16:47:39.042Z,14.85
2019-04-30T16:50:09.113Z,14.75
2019-04-30T16:52:39.356Z,13.58
2019-04-30T16:55:13.154Z,18.12
2019-04-30T16:57:45.045Z,13.38
2019-04-30T17:00:16.758Z,14.18
2019-04-30T17:02:49.390Z,13.83
2019-04-30T17:05:25.949Z,20.25
2019-04-30T17:08:02.616Z,13.78
2019-04-30T17:10:39.616Z,14.25
2019-04-30T17:13:16.142Z,13.58
2019-04-30T17:15:47.476Z,14.47
2019-04-30T17:18:18.921Z,13.80
2019-04-30T17:20:49.125Z,13.32
2019-04-30T17:23:19.330Z,13.68
2019-04-30T17:25:48.887Z,13.85
2019-04-30T17:28:18.841Z,18.82
2019-04-30T17:30:49.134Z,14.78
2019-04-30T17:33:18.722Z,17.75
2019-04-30T17:35:49.746Z,27.48
2019-04-30T17:38:19.248Z,55.98
2019-04-30T17:40:49.703Z,16.45
2019-04-30T17:45:49.411Z,17.35
2019-04-30T17:48:19.158Z,15.75
2019-04-30T17:50:49.807Z,16.97
2019-04-30T17:53:19.300Z,14.97
2019-04-30T17:55:49.114Z,16.90
2019-04-30T17:58:20.623Z,17.35
2019-04-30T18:00:51.283Z,16.17
2019-04-30T18:03:20.688Z,18.60
2019-04-30T18:05:50.347Z,19.02
2019-04-30T18:08:19.956Z,19.17
2019-04-30T18:10:49.571Z,17.80
2019-04-30T18:13:18.989Z,18.48
2019-04-30T18:15:49.321Z,18.20
2019-04-30T18:18:20.308Z,18.52
2019-04-30T18:20:56.834Z,18.07
2019-04-30T18:23:43.353Z,18.23
2019-04-30T18:26:14.306Z,19.40
2019-04-30T18:28:43.660Z,19.90
2019-04-30T18:31:13.079Z,19.05
2019-04-30T18:33:42.416Z,18.87
2019-04-30T18:36:11.723Z,17.00
2019-04-30T18:38:41.067Z,17.25
2019-04-30T18:41:10.612Z,18.90
2019-04-30T18:43:40.513Z,17.82
2019-04-30T18:46:10.840Z,19.67
2019-04-30T18:48:40.446Z,19.37
2019-04-30T18:51:29.921Z,19.17
2019-04-30T18:53:40.996Z,18.92
2019-04-30T18:56:14.446Z,19.12
2019-04-30T18:58:43.084Z,21.17
2019-04-30T19:01:13.185Z,20.68
2019-04-30T19:03:42.845Z,19.90
2019-04-30T19:06:22.987Z,21.23
2019-04-30T19:09:02.691Z,21.17
2019-04-30T19:11:49.355Z,21.93
2019-04-30T19:14:35.429Z,21.97
2019-04-30T19:17:06.652Z,22.25
2019-04-30T19:19:43.746Z,23.65
2019-04-30T19:22:14.237Z,23.73
2019-04-30T19:24:55.692Z,23.90
2019-04-30T19:27:14.701Z,24.87
2019-04-30T19:29:44.028Z,23.80
2019-04-30T19:32:13.381Z,22.35
2019-04-30T19:34:42.790Z,23.50
2019-04-30T19:37:12.161Z,22.67
2019-04-30T19:39:41.608Z,24.25
2019-04-30T19:42:10.922Z,21.62
2019-04-30T19:44:40.334Z,23.85
2019-04-30T19:47:10.109Z,24.77
2019-04-30T19:49:41.561Z,23.83
2019-04-30T19:52:11.814Z,24.20
2019-04-30T19:57:10.318Z,24.50
2019-04-30T19:59:39.716Z,25.32
2019-04-30T20:02:10.709Z,23.83
2019-04-30T20:04:42.135Z,25.35
2019-04-30T20:07:11.128Z,90.22
2019-04-30T20:09:43.002Z,29.02
2019-04-30T20:12:11.474Z,26.73
2019-04-30T20:14:40.968Z,25.20
2019-04-30T20:17:13.068Z,24.63
2019-04-30T20:19:41.533Z,26.33
2019-04-30T20:22:11.103Z,25.17
2019-04-30T20:24:40.511Z,27.30
2019-04-30T20:27:10.390Z,25.43
2019-04-30T20:29:40.997Z,25.20
2019-04-30T20:32:10.936Z,25.88
2019-04-30T20:34:40.604Z,27.85
2019-04-30T20:37:09.942Z,27.48
2019-04-30T20:39:43.736Z,27.02
2019-04-30T20:42:13.110Z,27.42
2019-04-30T20:44:42.448Z,27.27
2019-04-30T20:47:11.749Z,36.42
2019-04-30T20:49:41.071Z,27.17
2019-04-30T20:52:10.400Z,28.47
2019-04-30T20:54:39.782Z,30.08
2019-04-30T20:57:09.088Z,30.50
2019-04-30T20:59:38.828Z,36.00
2019-04-30T21:02:08.376Z,31.03
2019-04-30T21:04:37.776Z,31.25
2019-04-30T21:07:07.096Z,29.98
2019-04-30T21:09:38.169Z,41.98
2019-04-30T21:12:08.999Z,34.67
2019-04-30T21:14:40.391Z,35.10
2019-04-30T21:17:09.471Z,35.25
2019-04-30T21:19:38.815Z,32.28
2019-04-30T21:22:09.525Z,38.78
2019-04-30T21:24:39.115Z,34.03
2019-04-30T21:27:08.412Z,29.63
2019-04-30T21:29:39.131Z,31.82
2019-04-30T21:34:40.428Z,37.20
2019-04-30T21:37:09.983Z,30.60
2019-04-30T21:39:39.323Z,34.70
2019-04-30T21:42:09.272Z,32.65
2019-04-30T21:44:39.981Z,33.42
2019-04-30T21:47:09.367Z,36.88
2019-04-30T21:49:38.698Z,31.40
2019-04-30T21:52:08.075Z,32.85
2019-04-30T21:54:38.770Z,33.33
2019-04-30T21:59:38.727Z,31.02
2019-04-30T22:02:08.197Z,32.33
2019-04-30T22:04:37.566Z,31.55
2019-04-30T22:07:07.034Z,34.88
2019-04-30T22:09:36.384Z,32.42
2019-04-30T22:12:05.783Z,32.35
2019-04-30T22:14:35.169Z,32.80
2019-04-30T22:17:04.605Z,36.15
2019-04-30T22:19:33.987Z,34.33
2019-04-30T22:22:03.461Z,34.85
2019-04-30T22:24:32.804Z,32.03
2019-04-30T22:27:02.142Z,32.70
2019-04-30T22:29:39.295Z,32.73
2019-04-30T22:32:02.535Z,33.50
2019-04-30T22:34:31.901Z,37.08
2019-04-30T22:37:02.296Z,38.98
2019-04-30T22:39:36.172Z,34.00
2019-04-30T22:42:30.314Z,34.45
2019-04-30T22:45:01.990Z,37.50
2019-04-30T22:49:59.903Z,34.83
2019-04-30T22:52:29.262Z,41.68
2019-04-30T22:54:58.640Z,31.75
2019-04-30T22:57:27.980Z,42.53
2019-04-30T22:59:57.284Z,35.55
2019-04-30T23:02:28.281Z,34.65
2019-04-30T23:04:58.515Z,30.60
2019-04-30T23:07:27.834Z,34.70
2019-04-30T23:09:57.167Z,31.12
2019-04-30T23:12:26.889Z,30.08
2019-04-30T23:14:56.193Z,33.20
2019-04-30T23:17:25.667Z,34.48
2019-04-30T23:19:54.999Z,34.38
2019-04-30T23:22:24.369Z,30.37
2019-04-30T23:24:53.687Z,32.90
2019-04-30T23:27:22.995Z,32.83
2019-04-30T23:30:02.724Z,39.75
2019-04-30T23:32:23.328Z,33.10
2019-04-30T23:34:52.694Z,33.00
2019-04-30T23:37:22.031Z,36.48
2019-04-30T23:39:51.355Z,31.85
2019-04-30T23:42:20.801Z,29.80
2019-04-30T23:44:50.110Z,30.65
2019-04-30T23:47:19.430Z,30.92
2019-04-30T23:49:48.757Z,31.12
2019-04-30T23:52:18.061Z,28.67
2019-04-30T23:54:47.381Z,31.25
2019-04-30T23:57:16.685Z,30.90
2019-04-30T23:59:46.028Z,33.70
